createdAt,value
2022-10-23T00:01:45.873Z,5.18
2022-10-23T00:04:17.033Z,4.88
2022-10-23T00:06:44.612Z,4.80
2022-10-23T00:09:13.329Z,4.47
2022-10-23T00:11:41.594Z,5.20
2022-10-23T00:14:09.309Z,5.18
2022-10-23T00:16:36.750Z,5.80
2022-10-23T00:19:04.667Z,5.43
2022-10-23T00:21:33.276Z,5.30
2022-10-23T00:24:00.599Z,5.47
2022-10-23T00:26:28.135Z,6.00
2022-10-23T00:28:55.975Z,5.72
2022-10-23T00:31:24.487Z,6.18
2022-10-23T00:33:52.655Z,5.70
2022-10-23T00:36:21.322Z,5.63
2022-10-23T00:38:50.437Z,5.78
2022-10-23T00:41:20.419Z,6.28
2022-10-23T00:44:07.559Z,6.15
2022-10-23T00:46:35.697Z,5.55
2022-10-23T00:49:04.302Z,5.53
2022-10-23T00:51:36.626Z,5.57
2022-10-23T00:54:22.901Z,5.78
2022-10-23T00:56:52.986Z,6.20
2022-10-23T00:59:20.403Z,6.32
2022-10-23T01:01:48.423Z,5.93
2022-10-23T01:04:15.971Z,5.75
2022-10-23T01:06:53.737Z,5.70
2022-10-23T01:09:30.981Z,5.90
2022-10-23T01:12:05.543Z,5.65
2022-10-23T01:14:39.459Z,5.53
2022-10-23T01:17:10.255Z,5.68
2022-10-23T01:19:51.904Z,5.70
2022-10-23T01:22:37.695Z,5.50
2022-10-23T01:25:20.970Z,4.90
2022-10-23T01:27:52.610Z,5.77
2022-10-23T01:30:20.248Z,5.63
2022-10-23T01:32:54.834Z,5.80
2022-10-23T01:35:28.265Z,5.18
2022-10-23T01:38:09.431Z,5.35
2022-10-23T01:40:44.449Z,5.80
2022-10-23T01:43:18.005Z,5.88
2022-10-23T01:45:50.878Z,5.63
2022-10-23T01:48:24.938Z,5.90
2022-10-23T01:50:54.823Z,5.60
2022-10-23T01:53:22.932Z,5.67
2022-10-23T01:55:51.830Z,5.70
2022-10-23T01:58:26.642Z,5.65
2022-10-23T02:00:59.112Z,5.78
2022-10-23T02:03:29.235Z,5.63
2022-10-23T02:05:56.678Z,5.27
2022-10-23T02:08:25.507Z,5.45
2022-10-23T02:11:00.561Z,5.40
2022-10-23T02:13:34.445Z,5.40
2022-10-23T02:16:10.740Z,5.72
2022-10-23T02:18:46.173Z,6.20
2022-10-23T02:21:17.446Z,6.40
2022-10-23T02:23:55.377Z,6.40
2022-10-23T02:26:27.541Z,6.15
2022-10-23T02:31:37.251Z,5.60
2022-10-23T02:34:04.582Z,6.25
2022-10-23T02:36:32.172Z,5.53
2022-10-23T02:39:00.665Z,6.07
2022-10-23T02:41:37.823Z,5.82
2022-10-23T02:44:23.188Z,5.93
2022-10-23T02:46:56.256Z,5.72
2022-10-23T02:49:30.512Z,6.18
2022-10-23T02:52:07.471Z,5.70
2022-10-23T02:54:50.625Z,5.57
2022-10-23T02:57:26.325Z,5.57
2022-10-23T03:00:03.163Z,5.55
2022-10-23T03:02:36.296Z,5.65
2022-10-23T03:05:06.740Z,5.50
2022-10-23T03:07:34.782Z,5.60
2022-10-23T03:10:07.932Z,5.37
2022-10-23T03:12:35.665Z,5.47
2022-10-23T03:15:07.562Z,5.75
2022-10-23T03:17:34.816Z,5.55
2022-10-23T03:20:02.763Z,5.43
2022-10-23T03:22:30.007Z,5.30
2022-10-23T03:24:57.613Z,5.63
2022-10-23T03:27:25.026Z,5.22
2022-10-23T03:29:55.150Z,5.90
2022-10-23T03:32:24.149Z,5.93
2022-10-23T03:34:51.406Z,5.40
2022-10-23T03:37:18.853Z,5.78
2022-10-23T03:39:46.174Z,5.80
2022-10-23T03:42:13.495Z,6.03
2022-10-23T03:44:40.773Z,5.57
2022-10-23T03:47:09.974Z,5.57
2022-10-23T03:49:38.805Z,5.50
2022-10-23T03:52:07.945Z,6.70
2022-10-23T03:54:35.840Z,6.35
2022-10-23T03:57:03.265Z,6.18
2022-10-23T03:59:31.112Z,5.80
2022-10-23T04:01:59.825Z,5.75
2022-10-23T04:04:27.782Z,6.18
2022-10-23T04:06:56.422Z,5.93
2022-10-23T04:09:24.044Z,6.13
2022-10-23T04:11:51.321Z,6.23
2022-10-23T04:14:18.594Z,6.47
2022-10-23T04:16:45.849Z,6.30
2022-10-23T04:19:13.215Z,6.57
2022-10-23T04:21:41.676Z,6.43
2022-10-23T04:24:10.384Z,7.03
2022-10-23T04:26:38.057Z,6.53
2022-10-23T04:29:05.404Z,6.65
2022-10-23T04:31:32.740Z,6.88
2022-10-23T04:34:00.076Z,6.50
2022-10-23T04:36:32.046Z,6.77
2022-10-23T04:39:05.780Z,6.75
2022-10-23T04:41:34.425Z,6.95
2022-10-23T04:44:01.898Z,6.40
2022-10-23T04:46:29.266Z,7.28
2022-10-23T04:48:56.499Z,7.10
2022-10-23T04:51:42.208Z,6.53
2022-10-23T04:54:28.200Z,6.18
2022-10-23T04:57:12.624Z,6.93
2022-10-23T04:59:54.898Z,6.95
2022-10-23T05:02:24.322Z,6.53
2022-10-23T05:04:52.598Z,6.80
2022-10-23T05:07:38.268Z,6.90
2022-10-23T05:10:12.876Z,6.10
2022-10-23T05:12:51.980Z,6.32
2022-10-23T05:15:19.228Z,6.47
2022-10-23T05:17:50.141Z,6.38
2022-10-23T05:20:25.116Z,6.45
2022-10-23T05:22:55.358Z,6.55
2022-10-23T05:25:25.941Z,6.28
2022-10-23T05:28:03.895Z,6.33
2022-10-23T05:30:33.113Z,6.22
2022-10-23T05:33:02.694Z,6.88
2022-10-23T05:35:36.387Z,6.38
2022-10-23T05:38:04.164Z,5.93
2022-10-23T05:40:33.100Z,6.40
2022-10-23T05:43:06.866Z,6.28
2022-10-23T05:45:53.010Z,6.18
2022-10-23T05:48:38.947Z,6.32
2022-10-23T05:51:28.389Z,6.18
2022-10-23T05:54:15.903Z,6.40
2022-10-23T05:56:59.114Z,6.13
2022-10-23T05:59:43.929Z,5.70
2022-10-23T06:02:22.845Z,6.47
2022-10-23T06:05:03.008Z,6.20
2022-10-23T06:07:47.710Z,6.40
2022-10-23T06:10:15.147Z,6.22
2022-10-23T06:12:45.882Z,6.60
2022-10-23T06:15:18.487Z,6.57
2022-10-23T06:18:01.019Z,6.72
2022-10-23T06:20:29.268Z,6.90
2022-10-23T06:23:07.138Z,6.75
2022-10-23T06:25:54.588Z,7.45
2022-10-23T06:28:27.453Z,7.25
2022-10-23T06:30:56.142Z,7.40
2022-10-23T06:33:23.488Z,7.17
2022-10-23T06:35:50.830Z,7.28
2022-10-23T06:38:18.327Z,7.28
2022-10-23T06:40:53.656Z,7.45
2022-10-23T06:43:26.953Z,6.90
2022-10-23T06:46:15.712Z,7.57
2022-10-23T06:49:01.647Z,7.03
2022-10-23T06:51:33.170Z,7.90
2022-10-23T06:54:00.653Z,8.18
2022-10-23T06:57:05.745Z,7.30
2022-10-23T06:59:41.855Z,7.23
2022-10-23T07:02:11.388Z,7.85
2022-10-23T07:04:41.170Z,7.68
2022-10-23T07:07:14.403Z,7.28
2022-10-23T07:09:47.825Z,8.20
2022-10-23T07:12:28.842Z,7.67
2022-10-23T07:15:16.631Z,7.63
2022-10-23T07:17:45.767Z,7.68
2022-10-23T07:20:13.081Z,7.55
2022-10-23T07:22:40.873Z,7.53
2022-10-23T07:25:14.464Z,7.60
2022-10-23T07:27:42.112Z,7.43
2022-10-23T07:30:11.799Z,7.43
2022-10-23T07:32:48.802Z,8.35
2022-10-23T07:35:39.394Z,8.20
2022-10-23T07:38:23.118Z,7.77
2022-10-23T07:40:57.619Z,7.20
2022-10-23T07:43:26.366Z,7.80
2022-10-23T07:45:53.965Z,7.30
2022-10-23T07:48:30.920Z,7.47
2022-10-23T07:51:03.940Z,7.60
2022-10-23T07:53:31.727Z,7.10
2022-10-23T07:56:13.488Z,7.03
2022-10-23T07:58:59.207Z,7.30
2022-10-23T08:01:31.469Z,7.10
2022-10-23T08:04:00.954Z,6.73
2022-10-23T08:06:30.098Z,7.07
2022-10-23T08:09:00.897Z,7.32
2022-10-23T08:11:35.335Z,6.93
2022-10-23T08:14:06.145Z,6.43
2022-10-23T08:16:36.438Z,6.23
2022-10-23T08:19:06.540Z,5.78
2022-10-23T08:21:35.961Z,6.30
2022-10-23T08:24:04.673Z,6.50
2022-10-23T08:26:32.089Z,6.43
2022-10-23T08:29:00.380Z,6.33
2022-10-23T08:31:28.574Z,7.05
2022-10-23T08:34:16.312Z,6.40
2022-10-23T08:36:45.901Z,6.45
2022-10-23T08:39:13.869Z,6.65
2022-10-23T08:41:53.195Z,6.10
2022-10-23T08:44:24.308Z,6.50
2022-10-23T08:47:00.277Z,5.68
2022-10-23T08:50:06.097Z,5.30
2022-10-23T08:52:39.713Z,5.45
2022-10-23T08:55:17.271Z,5.13
2022-10-23T08:57:51.429Z,5.45
2022-10-23T09:00:19.278Z,5.15
2022-10-23T09:02:48.470Z,5.18
2022-10-23T09:05:21.176Z,5.05
2022-10-23T09:08:11.773Z,4.97
2022-10-23T09:11:01.241Z,4.63
2022-10-23T09:13:51.347Z,4.53
2022-10-23T09:16:30.884Z,4.07
2022-10-23T09:18:58.669Z,3.85
2022-10-23T09:21:28.948Z,4.00
2022-10-23T09:23:56.673Z,3.95
2022-10-23T09:26:23.928Z,4.18
2022-10-23T09:28:57.571Z,4.53
2022-10-23T09:31:24.825Z,4.13
2022-10-23T09:33:56.594Z,3.80
2022-10-23T09:36:25.841Z,3.70
2022-10-23T09:38:56.186Z,3.95
2022-10-23T09:41:27.430Z,4.10
2022-10-23T09:44:03.098Z,3.58
2022-10-23T09:46:38.107Z,3.70
2022-10-23T09:49:07.392Z,3.80
2022-10-23T09:51:34.754Z,4.03
2022-10-23T09:54:03.641Z,4.05
2022-10-23T09:56:33.293Z,3.58
2022-10-23T09:59:03.205Z,3.83
2022-10-23T10:01:32.853Z,3.40
2022-10-23T10:04:31.553Z,3.78
2022-10-23T10:07:03.492Z,3.30
2022-10-23T10:09:32.576Z,3.88
2022-10-23T10:12:25.541Z,3.20
2022-10-23T10:15:00.640Z,3.40
2022-10-23T10:17:37.800Z,3.03
2022-10-23T10:20:26.714Z,3.38
2022-10-23T10:22:58.293Z,3.08
2022-10-23T10:25:33.095Z,3.70
2022-10-23T10:28:18.098Z,3.13
2022-10-23T10:30:56.355Z,3.42
2022-10-23T10:33:32.149Z,3.70
2022-10-23T10:36:08.929Z,3.38
2022-10-23T10:38:45.367Z,3.97
2022-10-23T10:41:40.091Z,3.60
2022-10-23T10:44:26.598Z,3.30
2022-10-23T10:46:58.277Z,3.28
2022-10-23T10:49:35.662Z,3.63
2022-10-23T10:52:37.639Z,4.10
2022-10-23T10:55:15.094Z,3.80
2022-10-23T10:57:48.409Z,4.05
2022-10-23T11:00:18.601Z,4.07
2022-10-23T11:02:47.749Z,4.50
2022-10-23T11:05:22.476Z,4.30
2022-10-23T11:07:55.564Z,4.25
2022-10-23T11:10:23.182Z,4.10
2022-10-23T11:12:52.376Z,4.10
2022-10-23T11:15:24.033Z,4.30
2022-10-23T11:17:55.258Z,4.30
2022-10-23T11:20:53.946Z,3.80
2022-10-23T11:23:50.008Z,3.63
2022-10-23T11:26:32.268Z,4.00
2022-10-23T11:29:22.364Z,4.07
2022-10-23T11:32:07.308Z,3.60
2022-10-23T11:35:05.979Z,3.47
2022-10-23T11:37:33.628Z,3.25
2022-10-23T11:40:13.506Z,3.53
2022-10-23T11:42:48.070Z,3.47
2022-10-23T11:45:32.705Z,3.10
2022-10-23T11:48:02.075Z,3.40
2022-10-23T11:50:32.661Z,3.15
2022-10-23T11:53:23.194Z,2.95
2022-10-23T11:56:04.160Z,2.70
2022-10-23T11:58:43.655Z,3.00
2022-10-23T12:01:37.182Z,3.10
2022-10-23T12:04:18.770Z,2.83
2022-10-23T12:06:48.821Z,3.08
2022-10-23T12:09:28.818Z,2.60
2022-10-23T12:12:13.648Z,2.70
2022-10-23T12:14:42.700Z,2.63
2022-10-23T12:17:30.265Z,2.40
2022-10-23T12:20:12.462Z,2.50
2022-10-23T12:22:47.546Z,2.80
2022-10-23T12:25:16.806Z,2.50
2022-10-23T12:27:52.758Z,2.22
2022-10-23T12:30:22.681Z,2.35
2022-10-23T12:33:11.218Z,2.58
2022-10-23T12:36:05.924Z,2.53
2022-10-23T12:38:39.348Z,2.37
2022-10-23T12:41:13.157Z,2.10
2022-10-23T12:43:42.388Z,2.03
2022-10-23T12:46:28.912Z,2.65
2022-10-23T12:48:59.280Z,2.38
2022-10-23T12:51:28.161Z,2.20
2022-10-23T12:53:55.980Z,2.17
2022-10-23T12:56:25.416Z,2.15
2022-10-23T12:58:55.496Z,1.90
2022-10-23T13:01:25.826Z,2.22
2022-10-23T13:04:02.506Z,1.97
2022-10-23T13:06:29.888Z,2.00
2022-10-23T13:08:57.685Z,2.40
2022-10-23T13:11:35.012Z,1.90
2022-10-23T13:14:11.942Z,2.45
2022-10-23T13:16:39.321Z,2.57
2022-10-23T13:19:23.100Z,2.40
2022-10-23T13:21:50.433Z,2.42
2022-10-23T13:24:21.648Z,2.20
2022-10-23T13:26:49.122Z,1.90
2022-10-23T13:29:20.471Z,2.10
2022-10-23T13:31:48.629Z,2.08
2022-10-23T13:34:26.965Z,1.80
2022-10-23T13:37:00.866Z,1.98
2022-10-23T13:39:30.684Z,2.15
2022-10-23T13:42:08.843Z,1.90
2022-10-23T13:44:37.546Z,1.80
2022-10-23T13:47:05.262Z,1.80
2022-10-23T13:49:33.828Z,1.90
2022-10-23T13:52:01.098Z,2.13
2022-10-23T13:54:29.303Z,2.20
2022-10-23T13:56:57.242Z,1.90
2022-10-23T13:59:24.505Z,1.92
2022-10-23T14:01:52.353Z,2.22
2022-10-23T14:04:20.480Z,1.80
2022-10-23T14:06:49.119Z,2.10
2022-10-23T14:09:18.249Z,2.17
2022-10-23T14:11:45.774Z,2.03
2022-10-23T14:14:13.273Z,1.90
2022-10-23T14:16:40.604Z,2.28
2022-10-23T14:19:08.451Z,1.70
2022-10-23T14:21:35.926Z,1.80
2022-10-23T14:24:04.805Z,1.95
2022-10-23T14:26:32.807Z,1.95
2022-10-23T14:29:04.159Z,2.20
2022-10-23T14:31:35.697Z,2.07
2022-10-23T14:34:02.948Z,2.10
2022-10-23T14:36:38.794Z,1.88
2022-10-23T14:39:18.725Z,2.00
2022-10-23T14:41:46.083Z,2.00
2022-10-23T14:44:13.558Z,2.30
2022-10-23T14:46:40.796Z,1.90
2022-10-23T14:49:08.033Z,2.17
2022-10-23T14:51:35.439Z,2.45
2022-10-23T14:54:04.919Z,2.10
2022-10-23T14:56:37.070Z,2.70
2022-10-23T14:59:04.959Z,2.58
2022-10-23T15:01:33.545Z,2.35
2022-10-23T15:04:00.994Z,2.00
2022-10-23T15:06:28.260Z,2.03
2022-10-23T15:08:55.678Z,2.27
2022-10-23T15:11:24.142Z,2.25
2022-10-23T15:13:54.638Z,2.30
2022-10-23T15:16:22.900Z,2.50
2022-10-23T15:18:50.686Z,2.13
2022-10-23T15:21:18.671Z,2.70
2022-10-23T15:23:46.609Z,2.10
2022-10-23T15:26:20.355Z,2.30
2022-10-23T15:28:48.180Z,2.45
2022-10-23T15:31:44.958Z,2.10
2022-10-23T15:34:16.600Z,2.20
2022-10-23T15:36:44.893Z,2.35
2022-10-23T15:39:13.833Z,2.40
2022-10-23T15:41:42.428Z,2.70
2022-10-23T15:44:12.721Z,2.90
2022-10-23T15:46:40.161Z,2.70
2022-10-23T15:49:08.793Z,2.60
2022-10-23T15:51:36.956Z,3.13
2022-10-23T15:54:05.296Z,2.90
2022-10-23T15:56:32.730Z,2.78
2022-10-23T15:59:00.165Z,3.30
2022-10-23T16:01:27.907Z,2.92
2022-10-23T16:03:55.302Z,3.17
2022-10-23T16:06:23.935Z,2.88
2022-10-23T16:08:51.278Z,3.00
2022-10-23T16:11:21.123Z,3.07
2022-10-23T16:13:48.474Z,2.88
2022-10-23T16:16:16.833Z,3.17
2022-10-23T16:18:45.480Z,3.05
2022-10-23T16:21:17.783Z,2.83
2022-10-23T16:23:46.851Z,3.13
2022-10-23T16:26:14.757Z,2.92
2022-10-23T16:28:43.858Z,2.75
2022-10-23T16:31:16.472Z,3.40
2022-10-23T16:33:46.874Z,3.03
2022-10-23T16:36:14.201Z,3.20
2022-10-23T16:39:20.213Z,3.58
2022-10-23T16:42:06.141Z,3.55
2022-10-23T16:45:04.166Z,3.83
2022-10-23T16:47:31.637Z,3.65
2022-10-23T16:49:59.574Z,3.63
2022-10-23T16:52:27.445Z,3.95
2022-10-23T16:54:56.069Z,4.60
2022-10-23T16:57:23.336Z,4.47
2022-10-23T16:59:50.609Z,3.97
2022-10-23T17:02:20.303Z,4.40
2022-10-23T17:04:48.089Z,3.65
2022-10-23T17:07:16.195Z,3.92
2022-10-23T17:09:45.026Z,4.00
2022-10-23T17:12:13.829Z,3.80
2022-10-23T17:14:41.655Z,3.60
2022-10-23T17:17:12.001Z,3.75
2022-10-23T17:19:45.550Z,3.50
2022-10-23T17:22:16.396Z,5.40
2022-10-23T17:24:46.197Z,5.50
2022-10-23T17:27:18.091Z,5.53
2022-10-23T17:29:45.369Z,5.10
2022-10-23T17:32:13.135Z,5.20
2022-10-23T17:34:40.451Z,4.75
2022-10-23T17:37:08.933Z,4.53
2022-10-23T17:39:36.903Z,5.07
2022-10-23T17:42:04.382Z,5.43
2022-10-23T17:44:32.995Z,4.43
2022-10-23T17:47:00.219Z,4.95
2022-10-23T17:49:27.563Z,4.80
2022-10-23T17:51:56.689Z,4.90
2022-10-23T17:54:24.601Z,5.10
2022-10-23T17:56:51.896Z,4.93
2022-10-23T17:59:19.685Z,4.72
2022-10-23T18:01:49.514Z,4.65
2022-10-23T18:04:18.643Z,4.57
2022-10-23T18:06:48.758Z,4.60
2022-10-23T18:09:16.340Z,4.40
2022-10-23T18:11:48.061Z,4.97
2022-10-23T18:14:17.260Z,4.65
2022-10-23T18:16:45.739Z,4.07
2022-10-23T18:19:15.322Z,4.60
2022-10-23T18:21:42.714Z,4.40
2022-10-23T18:24:10.534Z,4.45
2022-10-23T18:26:40.294Z,4.38
2022-10-23T18:29:08.665Z,4.63
2022-10-23T18:31:37.751Z,4.22
2022-10-23T18:34:07.643Z,4.40
2022-10-23T18:36:38.770Z,4.07
2022-10-23T18:39:08.361Z,4.55
2022-10-23T18:41:37.949Z,4.47
2022-10-23T18:44:05.821Z,4.95
2022-10-23T18:46:33.467Z,4.28
2022-10-23T18:49:00.991Z,4.32
2022-10-23T18:51:30.055Z,4.45
2022-10-23T18:54:01.142Z,4.33
2022-10-23T18:56:28.470Z,4.22
2022-10-23T18:58:57.882Z,4.22
2022-10-23T19:01:27.524Z,4.25
2022-10-23T19:06:30.659Z,4.60
2022-10-23T19:08:59.509Z,4.55
2022-10-23T19:11:28.166Z,4.20
2022-10-23T19:13:55.686Z,3.95
2022-10-23T19:16:27.442Z,4.00
2022-10-23T19:18:57.625Z,4.17
2022-10-23T19:21:31.090Z,4.20
2022-10-23T19:24:01.772Z,4.30
2022-10-23T19:26:30.836Z,3.83
2022-10-23T19:28:58.369Z,4.60
2022-10-23T19:31:26.423Z,3.93
2022-10-23T19:33:54.300Z,4.43
2022-10-23T19:36:23.498Z,3.92
2022-10-23T19:38:50.982Z,3.90
2022-10-23T19:41:19.573Z,3.75
2022-10-23T19:43:46.802Z,4.07
2022-10-23T19:46:14.710Z,3.85
2022-10-23T19:48:44.425Z,3.85
2022-10-23T19:51:13.187Z,3.97
2022-10-23T19:53:41.378Z,4.13
2022-10-23T19:56:10.501Z,3.83
2022-10-23T19:58:39.585Z,4.47
2022-10-23T20:01:08.690Z,3.80
2022-10-23T20:03:36.190Z,4.25
2022-10-23T20:06:03.684Z,4.10
2022-10-23T20:08:32.770Z,3.87
2022-10-23T20:11:02.357Z,4.70
2022-10-23T20:13:29.641Z,4.72
2022-10-23T20:15:58.745Z,4.57
2022-10-23T20:18:26.127Z,4.60
2022-10-23T20:20:53.748Z,4.30
2022-10-23T20:23:21.052Z,4.25
2022-10-23T20:25:48.385Z,4.28
2022-10-23T20:28:15.647Z,4.40
2022-10-23T20:30:45.478Z,4.45
2022-10-23T20:33:14.050Z,4.40
2022-10-23T20:35:42.863Z,4.55
2022-10-23T20:38:10.294Z,4.00
2022-10-23T20:40:37.930Z,4.68
2022-10-23T20:43:05.156Z,4.57
2022-10-23T20:45:32.497Z,4.47
2022-10-23T20:47:59.798Z,4.80
2022-10-23T20:50:28.510Z,4.30
2022-10-23T20:52:55.806Z,4.82
2022-10-23T20:55:23.060Z,4.75
2022-10-23T20:57:50.297Z,5.20
2022-10-23T21:00:17.903Z,5.10
2022-10-23T21:02:47.200Z,4.70
2022-10-23T21:05:17.241Z,4.50
2022-10-23T21:07:45.834Z,4.70
2022-10-23T21:10:13.097Z,4.83
2022-10-23T21:12:40.377Z,4.78
2022-10-23T21:15:09.279Z,4.38
2022-10-23T21:17:38.945Z,5.15
2022-10-23T21:20:06.984Z,5.28
2022-10-23T21:22:34.244Z,5.10
2022-10-23T21:25:02.889Z,4.82
2022-10-23T21:27:30.933Z,5.30
2022-10-23T21:29:58.241Z,5.28
2022-10-23T21:32:25.593Z,5.40
2022-10-23T21:34:52.826Z,5.70
2022-10-23T21:37:20.077Z,5.10
2022-10-23T21:39:47.329Z,5.15
2022-10-23T21:42:16.046Z,5.10
2022-10-23T21:44:43.544Z,5.18
2022-10-23T21:47:10.897Z,5.30
2022-10-23T21:49:38.290Z,5.35
2022-10-23T21:52:05.607Z,5.75
2022-10-23T21:54:33.337Z,5.70
2022-10-23T21:57:03.119Z,5.45
2022-10-23T21:59:35.493Z,5.37
2022-10-23T22:02:03.959Z,5.50
2022-10-23T22:04:31.432Z,5.55
2022-10-23T22:06:58.718Z,5.50
2022-10-23T22:09:25.952Z,5.82
2022-10-23T22:11:54.470Z,5.70
2022-10-23T22:14:22.722Z,5.63
2022-10-23T22:16:52.641Z,5.53
2022-10-23T22:19:21.398Z,5.50
2022-10-23T22:21:50.289Z,5.60
2022-10-23T22:24:17.735Z,6.03
2022-10-23T22:26:47.419Z,5.80
2022-10-23T22:29:17.783Z,6.60
2022-10-23T22:31:49.617Z,6.30
2022-10-23T22:34:27.082Z,6.03
2022-10-23T22:37:01.328Z,6.30
2022-10-23T22:39:28.678Z,5.57
2022-10-23T22:41:56.037Z,5.90
2022-10-23T22:44:23.291Z,5.63
2022-10-23T22:46:50.531Z,5.80
2022-10-23T22:49:19.108Z,5.30
2022-10-23T22:51:46.344Z,5.78
2022-10-23T22:54:13.593Z,5.85
2022-10-23T22:56:42.416Z,5.70
2022-10-23T22:59:09.740Z,5.53
2022-10-23T23:01:39.439Z,5.30
2022-10-23T23:04:19.838Z,5.93
2022-10-23T23:06:55.558Z,5.45
2022-10-23T23:09:22.908Z,5.38
2022-10-23T23:11:52.532Z,5.07
2022-10-23T23:14:23.293Z,5.47
2022-10-23T23:16:51.941Z,4.00
2022-10-23T23:19:19.468Z,5.28
2022-10-23T23:21:46.833Z,5.53
2022-10-23T23:24:15.411Z,5.28
2022-10-23T23:26:42.664Z,4.77
2022-10-23T23:29:09.927Z,4.95
2022-10-23T23:31:37.210Z,5.35
2022-10-23T23:34:04.537Z,4.70
2022-10-23T23:36:32.599Z,5.03
2022-10-23T23:39:00.350Z,4.83
2022-10-23T23:41:29.576Z,4.55
2022-10-23T23:43:58.118Z,4.95
2022-10-23T23:46:25.690Z,4.43
2022-10-23T23:48:52.965Z,4.78
2022-10-23T23:51:22.374Z,4.70
2022-10-23T23:53:50.685Z,4.35
2022-10-23T23:56:18.757Z,4.57
2022-10-23T23:58:47.347Z,5.13
